sensor_id;sensor_type;location;lat;lon;timestamp;P1;durP1;ratioP1;P2;durP2;ratioP2
17441;SDS011;8838;50.144;8.176;2023-10-13T00:01:46;12.15;;;6.40;;
17441;SDS011;8838;50.144;8.176;2023-10-13T00:04:13;13.57;;;6.25;;
17441;SDS011;8838;50.144;8.176;2023-10-13T00:06:40;12.52;;;6.53;;
17441;SDS011;8838;50.144;8.176;2023-10-13T00:09:08;8.55;;;5.43;;
17441;SDS011;8838;50.144;8.176;2023-10-13T00:11:40;10.20;;;5.88;;
17441;SDS011;8838;50.144;8.176;2023-10-13T00:14:09;14.55;;;6.75;;
17441;SDS011;8838;50.144;8.176;2023-10-13T00:16:39;13.50;;;6.85;;
17441;SDS011;8838;50.144;8.176;2023-10-13T00:19:07;13.82;;;7.22;;
17441;SDS011;8838;50.144;8.176;2023-10-13T00:21:38;12.65;;;6.65;;
17441;SDS011;8838;50.144;8.176;2023-10-13T00:24:07;11.85;;;7.45;;
17441;SDS011;8838;50.144;8.176;2023-10-13T00:26:38;14.23;;;6.75;;
17441;SDS011;8838;50.144;8.176;2023-10-13T00:29:08;18.88;;;7.93;;
17441;SDS011;8838;50.144;8.176;2023-10-13T00:31:40;18.95;;;8.68;;
17441;SDS011;8838;50.144;8.176;2023-10-13T00:34:10;18.17;;;9.20;;
17441;SDS011;8838;50.144;8.176;2023-10-13T00:36:37;19.50;;;9.98;;
17441;SDS011;8838;50.144;8.176;2023-10-13T00:39:13;22.02;;;11.32;;
17441;SDS011;8838;50.144;8.176;2023-10-13T00:41:41;23.70;;;10.73;;
17441;SDS011;8838;50.144;8.176;2023-10-13T00:44:17;27.27;;;10.98;;
17441;SDS011;8838;50.144;8.176;2023-10-13T00:46:50;19.23;;;10.00;;
17441;SDS011;8838;50.144;8.176;2023-10-13T00:49:21;20.95;;;10.20;;
17441;SDS011;8838;50.144;8.176;2023-10-13T00:51:49;17.02;;;9.20;;
17441;SDS011;8838;50.144;8.176;2023-10-13T00:54:16;16.48;;;9.27;;
17441;SDS011;8838;50.144;8.176;2023-10-13T00:56:51;22.73;;;8.98;;
17441;SDS011;8838;50.144;8.176;2023-10-13T00:59:29;18.98;;;9.65;;
17441;SDS011;8838;50.144;8.176;2023-10-13T01:01:59;18.40;;;9.32;;
17441;SDS011;8838;50.144;8.176;2023-10-13T01:04:46;17.33;;;8.88;;
17441;SDS011;8838;50.144;8.176;2023-10-13T01:07:13;22.30;;;9.32;;
17441;SDS011;8838;50.144;8.176;2023-10-13T01:09:41;17.85;;;9.07;;
17441;SDS011;8838;50.144;8.176;2023-10-13T01:12:08;19.67;;;9.60;;
17441;SDS011;8838;50.144;8.176;2023-10-13T01:14:34;17.75;;;9.43;;
17441;SDS011;8838;50.144;8.176;2023-10-13T01:17:01;20.63;;;10.50;;
17441;SDS011;8838;50.144;8.176;2023-10-13T01:19:29;21.48;;;11.00;;
17441;SDS011;8838;50.144;8.176;2023-10-13T01:22:05;22.85;;;10.68;;
17441;SDS011;8838;50.144;8.176;2023-10-13T01:24:33;21.25;;;10.43;;
17441;SDS011;8838;50.144;8.176;2023-10-13T01:27:00;24.08;;;10.30;;
17441;SDS011;8838;50.144;8.176;2023-10-13T01:29:42;18.52;;;9.95;;
17441;SDS011;8838;50.144;8.176;2023-10-13T01:32:13;14.52;;;9.73;;
17441;SDS011;8838;50.144;8.176;2023-10-13T01:34:39;18.63;;;10.57;;
17441;SDS011;8838;50.144;8.176;2023-10-13T01:37:11;17.50;;;10.07;;
17441;SDS011;8838;50.144;8.176;2023-10-13T01:39:38;19.25;;;10.40;;
17441;SDS011;8838;50.144;8.176;2023-10-13T01:42:05;21.17;;;10.90;;
17441;SDS011;8838;50.144;8.176;2023-10-13T01:44:31;25.45;;;10.88;;
17441;SDS011;8838;50.144;8.176;2023-10-13T01:46:58;22.38;;;11.88;;
17441;SDS011;8838;50.144;8.176;2023-10-13T01:49:31;25.98;;;11.90;;
17441;SDS011;8838;50.144;8.176;2023-10-13T01:52:06;27.52;;;11.60;;
17441;SDS011;8838;50.144;8.176;2023-10-13T01:54:33;21.70;;;12.10;;
17441;SDS011;8838;50.144;8.176;2023-10-13T01:57:02;25.73;;;12.80;;
17441;SDS011;8838;50.144;8.176;2023-10-13T01:59:28;25.73;;;13.25;;
17441;SDS011;8838;50.144;8.176;2023-10-13T02:01:55;22.50;;;12.93;;
17441;SDS011;8838;50.144;8.176;2023-10-13T02:04:25;26.92;;;14.00;;
17441;SDS011;8838;50.144;8.176;2023-10-13T02:06:53;28.02;;;14.35;;
17441;SDS011;8838;50.144;8.176;2023-10-13T02:09:21;28.10;;;13.90;;
17441;SDS011;8838;50.144;8.176;2023-10-13T02:11:51;24.80;;;13.93;;
17441;SDS011;8838;50.144;8.176;2023-10-13T02:14:20;32.13;;;14.40;;
17441;SDS011;8838;50.144;8.176;2023-10-13T02:16:50;24.75;;;14.02;;
17441;SDS011;8838;50.144;8.176;2023-10-13T02:19:16;26.50;;;15.00;;
17441;SDS011;8838;50.144;8.176;2023-10-13T02:21:44;26.65;;;14.23;;
17441;SDS011;8838;50.144;8.176;2023-10-13T02:24:11;25.65;;;14.57;;
17441;SDS011;8838;50.144;8.176;2023-10-13T02:26:43;25.60;;;14.40;;
17441;SDS011;8838;50.144;8.176;2023-10-13T02:29:09;24.00;;;15.27;;
17441;SDS011;8838;50.144;8.176;2023-10-13T02:31:40;24.33;;;14.00;;
17441;SDS011;8838;50.144;8.176;2023-10-13T02:34:07;27.42;;;13.85;;
17441;SDS011;8838;50.144;8.176;2023-10-13T02:36:34;25.83;;;13.65;;
17441;SDS011;8838;50.144;8.176;2023-10-13T02:39:01;24.42;;;14.90;;
17441;SDS011;8838;50.144;8.176;2023-10-13T02:41:32;24.42;;;13.68;;
17441;SDS011;8838;50.144;8.176;2023-10-13T02:44:02;24.30;;;14.73;;
17441;SDS011;8838;50.144;8.176;2023-10-13T02:46:30;27.08;;;14.43;;
17441;SDS011;8838;50.144;8.176;2023-10-13T02:49:01;23.70;;;13.13;;
17441;SDS011;8838;50.144;8.176;2023-10-13T02:51:35;22.10;;;12.68;;
17441;SDS011;8838;50.144;8.176;2023-10-13T02:54:02;26.60;;;12.70;;
17441;SDS011;8838;50.144;8.176;2023-10-13T02:56:35;26.30;;;14.40;;
17441;SDS011;8838;50.144;8.176;2023-10-13T02:59:01;24.35;;;13.77;;
17441;SDS011;8838;50.144;8.176;2023-10-13T03:01:30;25.95;;;14.13;;
17441;SDS011;8838;50.144;8.176;2023-10-13T03:03:59;29.25;;;15.73;;
17441;SDS011;8838;50.144;8.176;2023-10-13T03:06:29;31.60;;;15.50;;
17441;SDS011;8838;50.144;8.176;2023-10-13T03:08:58;25.90;;;15.38;;
17441;SDS011;8838;50.144;8.176;2023-10-13T03:11:39;28.42;;;16.73;;
17441;SDS011;8838;50.144;8.176;2023-10-13T03:14:08;29.70;;;15.52;;
17441;SDS011;8838;50.144;8.176;2023-10-13T03:16:45;25.00;;;15.80;;
17441;SDS011;8838;50.144;8.176;2023-10-13T03:19:12;34.22;;;18.98;;
17441;SDS011;8838;50.144;8.176;2023-10-13T03:21:39;36.05;;;19.27;;
17441;SDS011;8838;50.144;8.176;2023-10-13T03:24:09;34.20;;;19.20;;
17441;SDS011;8838;50.144;8.176;2023-10-13T03:26:38;28.88;;;18.27;;
17441;SDS011;8838;50.144;8.176;2023-10-13T03:29:09;37.25;;;20.63;;
17441;SDS011;8838;50.144;8.176;2023-10-13T03:31:39;36.60;;;19.20;;
17441;SDS011;8838;50.144;8.176;2023-10-13T03:34:05;34.90;;;19.73;;
17441;SDS011;8838;50.144;8.176;2023-10-13T03:36:38;34.80;;;20.33;;
17441;SDS011;8838;50.144;8.176;2023-10-13T03:39:23;32.72;;;18.25;;
17441;SDS011;8838;50.144;8.176;2023-10-13T03:41:56;33.83;;;18.88;;
17441;SDS011;8838;50.144;8.176;2023-10-13T03:44:24;30.98;;;18.20;;
17441;SDS011;8838;50.144;8.176;2023-10-13T03:46:55;31.70;;;18.40;;
17441;SDS011;8838;50.144;8.176;2023-10-13T03:49:22;30.30;;;18.67;;
17441;SDS011;8838;50.144;8.176;2023-10-13T03:51:51;36.63;;;17.52;;
17441;SDS011;8838;50.144;8.176;2023-10-13T03:54:20;33.60;;;19.45;;
17441;SDS011;8838;50.144;8.176;2023-10-13T03:56:47;36.28;;;18.90;;
17441;SDS011;8838;50.144;8.176;2023-10-13T03:59:17;32.72;;;17.23;;
17441;SDS011;8838;50.144;8.176;2023-10-13T04:01:44;33.65;;;17.02;;
17441;SDS011;8838;50.144;8.176;2023-10-13T04:04:12;30.33;;;17.02;;
17441;SDS011;8838;50.144;8.176;2023-10-13T04:06:40;30.17;;;16.98;;
17441;SDS011;8838;50.144;8.176;2023-10-13T04:09:18;29.00;;;16.55;;
17441;SDS011;8838;50.144;8.176;2023-10-13T04:12:05;27.73;;;15.60;;
17441;SDS011;8838;50.144;8.176;2023-10-13T04:15:08;30.33;;;15.85;;
17441;SDS011;8838;50.144;8.176;2023-10-13T04:17:46;29.98;;;15.93;;
17441;SDS011;8838;50.144;8.176;2023-10-13T04:20:14;28.70;;;15.60;;
17441;SDS011;8838;50.144;8.176;2023-10-13T04:22:52;25.42;;;15.30;;
17441;SDS011;8838;50.144;8.176;2023-10-13T04:25:38;27.13;;;15.23;;
17441;SDS011;8838;50.144;8.176;2023-10-13T04:28:17;33.28;;;14.23;;
17441;SDS011;8838;50.144;8.176;2023-10-13T04:30:58;31.25;;;14.68;;
17441;SDS011;8838;50.144;8.176;2023-10-13T04:33:37;29.77;;;14.07;;
17441;SDS011;8838;50.144;8.176;2023-10-13T04:36:16;27.65;;;14.13;;
17441;SDS011;8838;50.144;8.176;2023-10-13T04:38:47;26.60;;;13.68;;
17441;SDS011;8838;50.144;8.176;2023-10-13T04:41:27;25.73;;;13.38;;
17441;SDS011;8838;50.144;8.176;2023-10-13T04:44:03;29.48;;;13.50;;
17441;SDS011;8838;50.144;8.176;2023-10-13T04:46:30;26.83;;;12.68;;
17441;SDS011;8838;50.144;8.176;2023-10-13T04:49:19;30.48;;;12.95;;
17441;SDS011;8838;50.144;8.176;2023-10-13T04:51:53;31.90;;;14.77;;
17441;SDS011;8838;50.144;8.176;2023-10-13T04:54:38;31.30;;;14.77;;
17441;SDS011;8838;50.144;8.176;2023-10-13T04:57:12;25.45;;;13.43;;
17441;SDS011;8838;50.144;8.176;2023-10-13T04:59:56;25.48;;;13.35;;
17441;SDS011;8838;50.144;8.176;2023-10-13T05:02:41;25.40;;;13.82;;
17441;SDS011;8838;50.144;8.176;2023-10-13T05:05:42;21.88;;;12.90;;
17441;SDS011;8838;50.144;8.176;2023-10-13T05:08:35;27.42;;;13.85;;
17441;SDS011;8838;50.144;8.176;2023-10-13T05:11:19;32.70;;;13.80;;
17441;SDS011;8838;50.144;8.176;2023-10-13T05:14:05;26.50;;;14.50;;
17441;SDS011;8838;50.144;8.176;2023-10-13T05:16:49;28.63;;;14.15;;
17441;SDS011;8838;50.144;8.176;2023-10-13T05:19:33;30.23;;;14.95;;
17441;SDS011;8838;50.144;8.176;2023-10-13T05:22:17;36.05;;;14.95;;
17441;SDS011;8838;50.144;8.176;2023-10-13T05:25:02;31.92;;;15.68;;
17441;SDS011;8838;50.144;8.176;2023-10-13T05:27:46;33.30;;;15.85;;
17441;SDS011;8838;50.144;8.176;2023-10-13T05:30:33;33.63;;;17.65;;
17441;SDS011;8838;50.144;8.176;2023-10-13T05:33:17;32.97;;;17.88;;
17441;SDS011;8838;50.144;8.176;2023-10-13T05:36:01;31.23;;;17.80;;
17441;SDS011;8838;50.144;8.176;2023-10-13T05:38:45;33.50;;;19.35;;
17441;SDS011;8838;50.144;8.176;2023-10-13T05:41:29;38.47;;;19.25;;
17441;SDS011;8838;50.144;8.176;2023-10-13T05:44:18;30.70;;;18.83;;
17441;SDS011;8838;50.144;8.176;2023-10-13T05:47:13;33.28;;;18.92;;
17441;SDS011;8838;50.144;8.176;2023-10-13T05:49:57;31.45;;;18.00;;
17441;SDS011;8838;50.144;8.176;2023-10-13T05:52:30;30.67;;;17.38;;
17441;SDS011;8838;50.144;8.176;2023-10-13T05:55:14;32.63;;;17.63;;
17441;SDS011;8838;50.144;8.176;2023-10-13T05:57:59;34.95;;;16.98;;
17441;SDS011;8838;50.144;8.176;2023-10-13T06:00:43;30.48;;;17.75;;
17441;SDS011;8838;50.144;8.176;2023-10-13T06:03:28;32.88;;;17.60;;
17441;SDS011;8838;50.144;8.176;2023-10-13T06:06:13;28.98;;;16.58;;
17441;SDS011;8838;50.144;8.176;2023-10-13T06:08:57;29.23;;;15.23;;
17441;SDS011;8838;50.144;8.176;2023-10-13T06:11:41;33.00;;;16.50;;
17441;SDS011;8838;50.144;8.176;2023-10-13T06:14:25;21.88;;;15.30;;
17441;SDS011;8838;50.144;8.176;2023-10-13T06:17:09;31.55;;;16.70;;
17441;SDS011;8838;50.144;8.176;2023-10-13T06:19:55;28.50;;;15.13;;
17441;SDS011;8838;50.144;8.176;2023-10-13T06:22:39;26.33;;;14.52;;
17441;SDS011;8838;50.144;8.176;2023-10-13T06:25:23;24.25;;;14.90;;
17441;SDS011;8838;50.144;8.176;2023-10-13T06:28:07;28.73;;;14.27;;
17441;SDS011;8838;50.144;8.176;2023-10-13T06:30:56;24.77;;;14.63;;
17441;SDS011;8838;50.144;8.176;2023-10-13T06:33:26;28.23;;;14.77;;
17441;SDS011;8838;50.144;8.176;2023-10-13T06:35:56;26.15;;;14.13;;
17441;SDS011;8838;50.144;8.176;2023-10-13T06:38:24;23.52;;;14.02;;
17441;SDS011;8838;50.144;8.176;2023-10-13T06:40:56;28.55;;;13.30;;
17441;SDS011;8838;50.144;8.176;2023-10-13T06:43:23;24.75;;;13.18;;
17441;SDS011;8838;50.144;8.176;2023-10-13T06:45:50;23.23;;;12.60;;
17441;SDS011;8838;50.144;8.176;2023-10-13T06:48:22;22.02;;;11.68;;
17441;SDS011;8838;50.144;8.176;2023-10-13T06:50:50;27.02;;;13.10;;
17441;SDS011;8838;50.144;8.176;2023-10-13T06:53:19;21.27;;;11.05;;
17441;SDS011;8838;50.144;8.176;2023-10-13T06:55:46;19.63;;;9.82;;
17441;SDS011;8838;50.144;8.176;2023-10-13T06:58:14;21.90;;;9.38;;
17441;SDS011;8838;50.144;8.176;2023-10-13T07:00:42;19.65;;;8.82;;
17441;SDS011;8838;50.144;8.176;2023-10-13T07:03:18;17.65;;;7.90;;
17441;SDS011;8838;50.144;8.176;2023-10-13T07:05:45;16.08;;;7.55;;
17441;SDS011;8838;50.144;8.176;2023-10-13T07:08:14;21.23;;;8.05;;
17441;SDS011;8838;50.144;8.176;2023-10-13T07:10:49;20.40;;;7.80;;
17441;SDS011;8838;50.144;8.176;2023-10-13T07:13:26;20.83;;;6.93;;
17441;SDS011;8838;50.144;8.176;2023-10-13T07:15:54;13.52;;;6.72;;
17441;SDS011;8838;50.144;8.176;2023-10-13T07:18:27;16.50;;;7.03;;
17441;SDS011;8838;50.144;8.176;2023-10-13T07:21:01;19.02;;;7.35;;
17441;SDS011;8838;50.144;8.176;2023-10-13T07:23:34;14.82;;;6.32;;
17441;SDS011;8838;50.144;8.176;2023-10-13T07:26:04;13.80;;;6.10;;
17441;SDS011;8838;50.144;8.176;2023-10-13T07:28:33;17.25;;;6.35;;
17441;SDS011;8838;50.144;8.176;2023-10-13T07:31:01;17.95;;;6.40;;
17441;SDS011;8838;50.144;8.176;2023-10-13T07:33:38;15.35;;;6.95;;
17441;SDS011;8838;50.144;8.176;2023-10-13T07:36:07;16.67;;;7.03;;
17441;SDS011;8838;50.144;8.176;2023-10-13T07:38:40;15.07;;;6.32;;
17441;SDS011;8838;50.144;8.176;2023-10-13T07:41:09;16.52;;;6.75;;
17441;SDS011;8838;50.144;8.176;2023-10-13T07:43:40;14.13;;;6.20;;
17441;SDS011;8838;50.144;8.176;2023-10-13T07:46:10;19.67;;;6.97;;
17441;SDS011;8838;50.144;8.176;2023-10-13T07:48:38;11.45;;;6.20;;
17441;SDS011;8838;50.144;8.176;2023-10-13T07:51:06;15.00;;;5.88;;
17441;SDS011;8838;50.144;8.176;2023-10-13T07:53:36;19.08;;;6.13;;
17441;SDS011;8838;50.144;8.176;2023-10-13T07:56:05;15.68;;;6.18;;
17441;SDS011;8838;50.144;8.176;2023-10-13T07:58:34;12.68;;;6.13;;
17441;SDS011;8838;50.144;8.176;2023-10-13T08:01:12;14.32;;;6.38;;
17441;SDS011;8838;50.144;8.176;2023-10-13T08:03:43;14.20;;;6.60;;
17441;SDS011;8838;50.144;8.176;2023-10-13T08:06:11;13.63;;;6.32;;
17441;SDS011;8838;50.144;8.176;2023-10-13T08:08:46;13.77;;;5.82;;
17441;SDS011;8838;50.144;8.176;2023-10-13T08:11:18;18.38;;;6.60;;
17441;SDS011;8838;50.144;8.176;2023-10-13T08:13:57;15.93;;;6.50;;
17441;SDS011;8838;50.144;8.176;2023-10-13T08:16:25;11.57;;;6.05;;
17441;SDS011;8838;50.144;8.176;2023-10-13T08:19:10;15.27;;;6.53;;
17441;SDS011;8838;50.144;8.176;2023-10-13T08:21:40;14.90;;;6.13;;
17441;SDS011;8838;50.144;8.176;2023-10-13T08:24:14;13.88;;;6.00;;
17441;SDS011;8838;50.144;8.176;2023-10-13T08:26:50;13.30;;;6.28;;
17441;SDS011;8838;50.144;8.176;2023-10-13T08:29:24;14.73;;;6.68;;
17441;SDS011;8838;50.144;8.176;2023-10-13T08:32:14;15.63;;;6.47;;
17441;SDS011;8838;50.144;8.176;2023-10-13T08:34:48;16.83;;;6.25;;
17441;SDS011;8838;50.144;8.176;2023-10-13T08:37:29;18.27;;;6.63;;
17441;SDS011;8838;50.144;8.176;2023-10-13T08:40:11;13.60;;;6.15;;
17441;SDS011;8838;50.144;8.176;2023-10-13T08:43:08;17.10;;;6.32;;
17441;SDS011;8838;50.144;8.176;2023-10-13T08:45:38;13.93;;;6.20;;
17441;SDS011;8838;50.144;8.176;2023-10-13T08:48:24;15.93;;;7.13;;
17441;SDS011;8838;50.144;8.176;2023-10-13T08:50:57;20.45;;;6.63;;
17441;SDS011;8838;50.144;8.176;2023-10-13T08:53:34;17.15;;;6.95;;
17441;SDS011;8838;50.144;8.176;2023-10-13T08:56:10;14.02;;;7.03;;
17441;SDS011;8838;50.144;8.176;2023-10-13T08:58:43;12.77;;;6.63;;
17441;SDS011;8838;50.144;8.176;2023-10-13T09:01:32;14.75;;;6.13;;
17441;SDS011;8838;50.144;8.176;2023-10-13T09:04:05;10.63;;;6.80;;
17441;SDS011;8838;50.144;8.176;2023-10-13T09:06:47;15.10;;;6.10;;
17441;SDS011;8838;50.144;8.176;2023-10-13T09:09:28;14.73;;;6.03;;
17441;SDS011;8838;50.144;8.176;2023-10-13T09:12:01;11.48;;;5.93;;
17441;SDS011;8838;50.144;8.176;2023-10-13T09:14:35;9.60;;;5.80;;
17441;SDS011;8838;50.144;8.176;2023-10-13T09:17:05;15.35;;;6.15;;
17441;SDS011;8838;50.144;8.176;2023-10-13T09:20:00;11.52;;;5.80;;
17441;SDS011;8838;50.144;8.176;2023-10-13T09:22:49;14.00;;;5.95;;
17441;SDS011;8838;50.144;8.176;2023-10-13T09:25:21;17.58;;;6.07;;
17441;SDS011;8838;50.144;8.176;2023-10-13T09:27:48;12.80;;;6.43;;
17441;SDS011;8838;50.144;8.176;2023-10-13T09:30:18;9.30;;;5.53;;
17441;SDS011;8838;50.144;8.176;2023-10-13T09:32:49;15.52;;;6.10;;
17441;SDS011;8838;50.144;8.176;2023-10-13T09:35:26;12.77;;;6.30;;
17441;SDS011;8838;50.144;8.176;2023-10-13T09:37:53;11.43;;;5.50;;
17441;SDS011;8838;50.144;8.176;2023-10-13T09:40:21;9.82;;;5.18;;
17441;SDS011;8838;50.144;8.176;2023-10-13T09:42:52;13.43;;;5.97;;
17441;SDS011;8838;50.144;8.176;2023-10-13T09:45:23;11.45;;;5.50;;
17441;SDS011;8838;50.144;8.176;2023-10-13T09:47:55;13.73;;;6.32;;
17441;SDS011;8838;50.144;8.176;2023-10-13T09:50:31;14.85;;;5.85;;
17441;SDS011;8838;50.144;8.176;2023-10-13T09:53:05;10.70;;;5.80;;
17441;SDS011;8838;50.144;8.176;2023-10-13T09:55:35;11.13;;;5.85;;
17441;SDS011;8838;50.144;8.176;2023-10-13T09:58:09;10.93;;;6.30;;
17441;SDS011;8838;50.144;8.176;2023-10-13T10:00:41;13.05;;;6.80;;
17441;SDS011;8838;50.144;8.176;2023-10-13T10:03:22;11.68;;;5.63;;
17441;SDS011;8838;50.144;8.176;2023-10-13T10:06:07;12.30;;;6.50;;
17441;SDS011;8838;50.144;8.176;2023-10-13T10:08:38;11.93;;;6.22;;
17441;SDS011;8838;50.144;8.176;2023-10-13T10:11:23;16.52;;;6.65;;
17441;SDS011;8838;50.144;8.176;2023-10-13T10:14:11;11.93;;;6.78;;
17441;SDS011;8838;50.144;8.176;2023-10-13T10:16:47;16.13;;;6.88;;
17441;SDS011;8838;50.144;8.176;2023-10-13T10:19:25;13.30;;;6.70;;
17441;SDS011;8838;50.144;8.176;2023-10-13T10:22:00;12.60;;;6.30;;
17441;SDS011;8838;50.144;8.176;2023-10-13T10:24:30;10.80;;;6.30;;
17441;SDS011;8838;50.144;8.176;2023-10-13T10:27:01;11.68;;;6.03;;
17441;SDS011;8838;50.144;8.176;2023-10-13T10:29:29;19.33;;;6.78;;
17441;SDS011;8838;50.144;8.176;2023-10-13T10:31:57;10.65;;;6.72;;
17441;SDS011;8838;50.144;8.176;2023-10-13T10:34:30;15.48;;;7.10;;
17441;SDS011;8838;50.144;8.176;2023-10-13T10:36:58;14.48;;;7.00;;
17441;SDS011;8838;50.144;8.176;2023-10-13T10:39:32;14.82;;;7.13;;
17441;SDS011;8838;50.144;8.176;2023-10-13T10:42:10;15.02;;;5.97;;
17441;SDS011;8838;50.144;8.176;2023-10-13T10:44:42;11.25;;;6.45;;
17441;SDS011;8838;50.144;8.176;2023-10-13T10:47:09;13.30;;;6.88;;
17441;SDS011;8838;50.144;8.176;2023-10-13T10:49:38;12.00;;;7.03;;
17441;SDS011;8838;50.144;8.176;2023-10-13T10:52:07;19.38;;;6.60;;
17441;SDS011;8838;50.144;8.176;2023-10-13T10:54:43;14.85;;;6.90;;
17441;SDS011;8838;50.144;8.176;2023-10-13T10:57:16;13.43;;;6.63;;
17441;SDS011;8838;50.144;8.176;2023-10-13T10:59:43;13.55;;;6.40;;
17441;SDS011;8838;50.144;8.176;2023-10-13T11:02:11;12.60;;;7.07;;
17441;SDS011;8838;50.144;8.176;2023-10-13T11:04:42;11.65;;;7.10;;
17441;SDS011;8838;50.144;8.176;2023-10-13T11:07:20;15.63;;;7.05;;
17441;SDS011;8838;50.144;8.176;2023-10-13T11:09:48;10.10;;;6.47;;
17441;SDS011;8838;50.144;8.176;2023-10-13T11:12:18;12.57;;;7.18;;
17441;SDS011;8838;50.144;8.176;2023-10-13T11:14:59;10.77;;;6.55;;
17441;SDS011;8838;50.144;8.176;2023-10-13T11:17:27;12.57;;;6.40;;
17441;SDS011;8838;50.144;8.176;2023-10-13T11:20:09;12.75;;;7.30;;
17441;SDS011;8838;50.144;8.176;2023-10-13T11:22:45;12.40;;;6.28;;
17441;SDS011;8838;50.144;8.176;2023-10-13T11:25:19;11.23;;;6.32;;
17441;SDS011;8838;50.144;8.176;2023-10-13T11:27:48;10.88;;;6.68;;
17441;SDS011;8838;50.144;8.176;2023-10-13T11:30:22;9.00;;;6.30;;
17441;SDS011;8838;50.144;8.176;2023-10-13T11:32:56;9.75;;;6.25;;
17441;SDS011;8838;50.144;8.176;2023-10-13T11:35:25;13.30;;;6.57;;
17441;SDS011;8838;50.144;8.176;2023-10-13T11:37:55;12.23;;;6.13;;
17441;SDS011;8838;50.144;8.176;2023-10-13T11:40:36;9.30;;;6.20;;
17441;SDS011;8838;50.144;8.176;2023-10-13T11:43:09;15.48;;;6.55;;
17441;SDS011;8838;50.144;8.176;2023-10-13T11:45:39;11.45;;;6.35;;
17441;SDS011;8838;50.144;8.176;2023-10-13T11:48:17;12.75;;;6.50;;
17441;SDS011;8838;50.144;8.176;2023-10-13T11:50:56;13.38;;;6.68;;
17441;SDS011;8838;50.144;8.176;2023-10-13T11:53:22;11.68;;;6.72;;
17441;SDS011;8838;50.144;8.176;2023-10-13T11:55:52;11.13;;;6.30;;
17441;SDS011;8838;50.144;8.176;2023-10-13T11:58:19;11.32;;;7.03;;
17441;SDS011;8838;50.144;8.176;2023-10-13T12:00:46;9.02;;;6.60;;
17441;SDS011;8838;50.144;8.176;2023-10-13T12:03:33;11.55;;;6.57;;
17441;SDS011;8838;50.144;8.176;2023-10-13T12:06:19;9.55;;;6.65;;
17441;SDS011;8838;50.144;8.176;2023-10-13T12:08:58;15.27;;;6.72;;
17441;SDS011;8838;50.144;8.176;2023-10-13T12:11:37;10.65;;;6.38;;
17441;SDS011;8838;50.144;8.176;2023-10-13T12:14:06;13.77;;;6.00;;
17441;SDS011;8838;50.144;8.176;2023-10-13T12:16:44;12.93;;;6.82;;
17441;SDS011;8838;50.144;8.176;2023-10-13T12:19:14;11.60;;;6.38;;
17441;SDS011;8838;50.144;8.176;2023-10-13T12:21:43;13.45;;;6.05;;
17441;SDS011;8838;50.144;8.176;2023-10-13T12:24:09;13.18;;;6.18;;
17441;SDS011;8838;50.144;8.176;2023-10-13T12:26:46;11.65;;;6.50;;
17441;SDS011;8838;50.144;8.176;2023-10-13T12:29:13;10.23;;;5.90;;
17441;SDS011;8838;50.144;8.176;2023-10-13T12:31:48;10.32;;;5.95;;
17441;SDS011;8838;50.144;8.176;2023-10-13T12:34:30;13.38;;;5.97;;
17441;SDS011;8838;50.144;8.176;2023-10-13T12:37:18;13.75;;;6.22;;
17441;SDS011;8838;50.144;8.176;2023-10-13T12:40:03;9.90;;;6.03;;
17441;SDS011;8838;50.144;8.176;2023-10-13T12:42:48;9.80;;;6.20;;
17441;SDS011;8838;50.144;8.176;2023-10-13T12:45:33;11.07;;;6.15;;
17441;SDS011;8838;50.144;8.176;2023-10-13T12:48:21;11.65;;;6.05;;
17441;SDS011;8838;50.144;8.176;2023-10-13T12:51:05;9.48;;;6.10;;
17441;SDS011;8838;50.144;8.176;2023-10-13T12:53:46;10.15;;;5.38;;
17441;SDS011;8838;50.144;8.176;2023-10-13T12:56:14;12.82;;;6.05;;
17441;SDS011;8838;50.144;8.176;2023-10-13T12:58:41;8.98;;;5.40;;
17441;SDS011;8838;50.144;8.176;2023-10-13T13:01:16;11.73;;;6.47;;
17441;SDS011;8838;50.144;8.176;2023-10-13T13:03:45;11.95;;;6.15;;
17441;SDS011;8838;50.144;8.176;2023-10-13T13:06:16;9.00;;;5.65;;
17441;SDS011;8838;50.144;8.176;2023-10-13T13:08:51;7.93;;;5.53;;
17441;SDS011;8838;50.144;8.176;2023-10-13T13:11:18;12.05;;;5.97;;
17441;SDS011;8838;50.144;8.176;2023-10-13T13:13:45;13.73;;;5.65;;
17441;SDS011;8838;50.144;8.176;2023-10-13T13:16:12;10.02;;;5.75;;
17441;SDS011;8838;50.144;8.176;2023-10-13T13:18:39;9.15;;;5.38;;
17441;SDS011;8838;50.144;8.176;2023-10-13T13:21:08;10.90;;;5.60;;
17441;SDS011;8838;50.144;8.176;2023-10-13T13:23:37;9.95;;;5.50;;
17441;SDS011;8838;50.144;8.176;2023-10-13T13:26:06;9.38;;;5.20;;
17441;SDS011;8838;50.144;8.176;2023-10-13T13:28:40;15.68;;;5.50;;
17441;SDS011;8838;50.144;8.176;2023-10-13T13:31:07;11.85;;;5.00;;
17441;SDS011;8838;50.144;8.176;2023-10-13T13:33:37;8.68;;;4.70;;
17441;SDS011;8838;50.144;8.176;2023-10-13T13:36:07;12.05;;;4.68;;
17441;SDS011;8838;50.144;8.176;2023-10-13T13:38:38;13.07;;;4.68;;
17441;SDS011;8838;50.144;8.176;2023-10-13T13:41:08;13.50;;;4.60;;
17441;SDS011;8838;50.144;8.176;2023-10-13T13:43:41;10.30;;;4.90;;
17441;SDS011;8838;50.144;8.176;2023-10-13T13:46:19;13.52;;;5.07;;
17441;SDS011;8838;50.144;8.176;2023-10-13T13:48:50;9.85;;;4.82;;
17441;SDS011;8838;50.144;8.176;2023-10-13T13:51:23;13.13;;;4.65;;
17441;SDS011;8838;50.144;8.176;2023-10-13T13:53:53;14.88;;;5.45;;
17441;SDS011;8838;50.144;8.176;2023-10-13T13:56:21;10.38;;;4.72;;
17441;SDS011;8838;50.144;8.176;2023-10-13T13:58:50;9.38;;;4.82;;
17441;SDS011;8838;50.144;8.176;2023-10-13T14:01:18;11.20;;;4.55;;
17441;SDS011;8838;50.144;8.176;2023-10-13T14:03:47;12.13;;;4.82;;
17441;SDS011;8838;50.144;8.176;2023-10-13T14:06:16;9.55;;;4.78;;
17441;SDS011;8838;50.144;8.176;2023-10-13T14:08:46;8.98;;;4.80;;
17441;SDS011;8838;50.144;8.176;2023-10-13T14:11:16;9.52;;;4.82;;
17441;SDS011;8838;50.144;8.176;2023-10-13T14:13:49;12.07;;;4.50;;
17441;SDS011;8838;50.144;8.176;2023-10-13T14:16:20;12.32;;;5.00;;
17441;SDS011;8838;50.144;8.176;2023-10-13T14:18:48;9.10;;;4.50;;
17441;SDS011;8838;50.144;8.176;2023-10-13T14:21:16;9.45;;;4.88;;
17441;SDS011;8838;50.144;8.176;2023-10-13T14:23:44;12.63;;;5.03;;
17441;SDS011;8838;50.144;8.176;2023-10-13T14:26:12;9.90;;;5.25;;
17441;SDS011;8838;50.144;8.176;2023-10-13T14:28:39;13.70;;;4.90;;
17441;SDS011;8838;50.144;8.176;2023-10-13T14:31:17;9.65;;;5.03;;
17441;SDS011;8838;50.144;8.176;2023-10-13T14:33:45;13.93;;;4.70;;
17441;SDS011;8838;50.144;8.176;2023-10-13T14:36:12;9.60;;;4.60;;
17441;SDS011;8838;50.144;8.176;2023-10-13T14:38:42;9.95;;;4.65;;
17441;SDS011;8838;50.144;8.176;2023-10-13T14:41:12;13.13;;;5.30;;
17441;SDS011;8838;50.144;8.176;2023-10-13T14:43:39;10.35;;;4.72;;
17441;SDS011;8838;50.144;8.176;2023-10-13T14:46:12;10.95;;;4.82;;
17441;SDS011;8838;50.144;8.176;2023-10-13T14:48:41;16.50;;;5.10;;
17441;SDS011;8838;50.144;8.176;2023-10-13T14:51:08;12.93;;;5.43;;
17441;SDS011;8838;50.144;8.176;2023-10-13T14:53:38;13.18;;;4.80;;
17441;SDS011;8838;50.144;8.176;2023-10-13T14:56:08;10.32;;;4.43;;
17441;SDS011;8838;50.144;8.176;2023-10-13T14:58:36;10.80;;;4.78;;
17441;SDS011;8838;50.144;8.176;2023-10-13T15:01:10;13.82;;;5.15;;
17441;SDS011;8838;50.144;8.176;2023-10-13T15:03:38;11.35;;;4.50;;
17441;SDS011;8838;50.144;8.176;2023-10-13T15:06:07;9.60;;;4.70;;
17441;SDS011;8838;50.144;8.176;2023-10-13T15:08:34;9.02;;;4.38;;
17441;SDS011;8838;50.144;8.176;2023-10-13T15:11:07;11.20;;;4.47;;
17441;SDS011;8838;50.144;8.176;2023-10-13T15:13:37;9.85;;;4.65;;
17441;SDS011;8838;50.144;8.176;2023-10-13T15:16:12;11.02;;;4.90;;
17441;SDS011;8838;50.144;8.176;2023-10-13T15:18:41;8.70;;;4.50;;
17441;SDS011;8838;50.144;8.176;2023-10-13T15:21:08;9.68;;;4.88;;